Terminal Aerodrome Forecast
Issued by NWS Wilmington, OH

Current Version | Previous Version | Graphics & Text | Print | Product List | Glossary Off
Versions: 1 2 3 4 5 6 7 8 9 10 11 12 13 14 15 16 17 18 19 20

000
FTUS41 KILN 231721
TAFCMH
TAF
KCMH 231721Z 2318/2418 VRB05KT P6SM SCT035 SCT250
     FM240100 00000KT P6SM SCT250
      TEMPO 2408/2412 4SM BR
     FM241400 22006KT P6SM SCT120 BKN200=

USA.gov is the U.S. government's official web portal to all federal, state and local government web resources and services.